createdAt,value
2023-01-02T00:01:16.631Z,35.50
2023-01-02T00:03:23.618Z,33.15
2023-01-02T00:05:30.949Z,34.00
2023-01-02T00:07:38.078Z,34.53
2023-01-02T00:09:45.205Z,35.00
2023-01-02T00:11:53.820Z,35.90
2023-01-02T00:14:01.115Z,36.33
2023-01-02T00:16:08.573Z,38.75
2023-01-02T00:18:15.772Z,39.08
2023-01-02T00:20:22.757Z,37.95
2023-01-02T00:22:29.930Z,35.75
2023-01-02T00:24:36.856Z,35.95
2023-01-02T00:26:44.269Z,37.42
2023-01-02T00:28:53.459Z,38.33
2023-01-02T00:31:00.426Z,40.67
2023-01-02T00:33:07.577Z,39.53
2023-01-02T00:35:14.709Z,43.38
2023-01-02T00:37:22.045Z,39.58
2023-01-02T00:39:29.576Z,37.80
2023-01-02T00:41:36.831Z,39.45
2023-01-02T00:43:44.612Z,38.28
2023-01-02T00:45:53.535Z,37.00
2023-01-02T00:48:00.393Z,36.50
2023-01-02T00:50:08.671Z,37.75
2023-01-02T00:52:15.608Z,37.55
2023-01-02T00:54:22.876Z,46.50
2023-01-02T00:56:29.851Z,51.25
2023-01-02T00:58:37.091Z,39.22
2023-01-02T01:00:44.268Z,37.10
2023-01-02T01:02:53.224Z,35.47
2023-01-02T01:05:00.135Z,35.60
2023-01-02T01:07:07.552Z,33.78
2023-01-02T01:09:14.528Z,35.08
2023-01-02T01:11:22.065Z,32.92
2023-01-02T01:13:28.993Z,35.03
2023-01-02T01:15:37.555Z,34.28
2023-01-02T01:17:44.433Z,33.65
2023-01-02T01:19:53.395Z,34.85
2023-01-02T01:22:00.227Z,33.83
2023-01-02T01:24:07.727Z,32.70
2023-01-02T01:26:16.382Z,31.45
2023-01-02T01:28:26.227Z,31.15
2023-01-02T01:30:33.203Z,28.25
2023-01-02T01:32:40.496Z,30.23
2023-01-02T01:34:47.739Z,29.55
2023-01-02T01:36:56.702Z,29.33
2023-01-02T01:39:03.566Z,28.58
2023-01-02T01:41:11.057Z,28.13
2023-01-02T01:43:18.802Z,27.88
2023-01-02T01:45:26.308Z,28.95
2023-01-02T01:47:40.333Z,29.13
2023-01-02T01:49:47.674Z,29.25
2023-01-02T01:51:58.329Z,29.13
2023-01-02T01:54:10.932Z,28.52
2023-01-02T01:56:18.961Z,28.75
2023-01-02T01:58:30.113Z,28.65
2023-01-02T02:00:37.757Z,27.02
2023-01-02T02:02:47.583Z,28.13
2023-01-02T02:04:55.346Z,27.83
2023-01-02T02:07:04.011Z,26.23
2023-01-02T02:09:19.845Z,27.63
2023-01-02T02:11:28.315Z,26.42
2023-01-02T02:13:36.410Z,25.27
2023-01-02T02:15:54.031Z,26.58
2023-01-02T02:18:11.866Z,26.42
2023-01-02T02:20:44.086Z,26.50
2023-01-02T02:23:32.079Z,26.25
2023-01-02T02:26:05.010Z,28.38
2023-01-02T02:28:41.632Z,26.42
2023-01-02T02:30:56.350Z,26.88
2023-01-02T02:33:17.499Z,28.42
2023-01-02T02:35:33.348Z,26.20
2023-01-02T02:37:51.163Z,24.17
2023-01-02T02:40:12.482Z,22.88
2023-01-02T02:42:29.028Z,24.58
2023-01-02T02:44:45.222Z,24.50
2023-01-02T02:46:59.520Z,21.92
2023-01-02T02:49:12.848Z,22.75
2023-01-02T02:51:30.216Z,22.50
2023-01-02T02:53:44.528Z,22.02
2023-01-02T02:55:55.078Z,22.02
2023-01-02T02:58:05.431Z,21.50
2023-01-02T03:00:16.657Z,21.38
2023-01-02T03:02:25.500Z,20.42
2023-01-02T03:04:32.761Z,21.42
2023-01-02T03:06:53.254Z,22.33
2023-01-02T03:09:13.657Z,21.52
2023-01-02T03:11:20.675Z,20.80
2023-01-02T03:13:41.313Z,20.98
2023-01-02T03:16:00.486Z,21.75
2023-01-02T03:18:20.929Z,21.00
2023-01-02T03:20:31.484Z,21.10
2023-01-02T03:22:42.304Z,21.23
2023-01-02T03:24:52.209Z,21.30
2023-01-02T03:27:02.404Z,21.15
2023-01-02T03:29:15.820Z,21.83
2023-01-02T03:31:26.633Z,20.45
2023-01-02T03:33:39.257Z,20.73
2023-01-02T03:35:49.818Z,21.88
2023-01-02T03:38:00.079Z,21.95
2023-01-02T03:40:13.447Z,21.35
2023-01-02T03:42:25.854Z,22.10
2023-01-02T03:44:39.943Z,20.98
2023-01-02T03:46:52.400Z,22.10
2023-01-02T03:49:06.548Z,21.10
2023-01-02T03:51:13.988Z,21.90
2023-01-02T03:53:21.118Z,19.13
2023-01-02T03:55:30.752Z,21.10
2023-01-02T03:57:43.257Z,20.42
2023-01-02T04:00:01.043Z,19.67
2023-01-02T04:02:15.350Z,20.00
2023-01-02T04:04:32.610Z,19.90
2023-01-02T04:06:44.597Z,20.17
2023-01-02T04:08:55.118Z,20.30
2023-01-02T04:11:04.027Z,20.20
2023-01-02T04:13:17.218Z,19.38
2023-01-02T04:15:27.774Z,18.88
2023-01-02T04:17:39.705Z,19.80
2023-01-02T04:19:51.713Z,19.63
2023-01-02T04:22:02.211Z,19.30
2023-01-02T04:24:14.137Z,19.63
2023-01-02T04:26:24.869Z,21.52
2023-01-02T04:28:33.849Z,19.33
2023-01-02T04:30:45.282Z,20.63
2023-01-02T04:32:52.279Z,19.80
2023-01-02T04:35:03.778Z,20.38
2023-01-02T04:37:12.052Z,18.95
2023-01-02T04:39:20.063Z,18.85
2023-01-02T04:41:28.655Z,18.92
2023-01-02T04:43:36.145Z,22.92
2023-01-02T04:45:43.174Z,19.85
2023-01-02T04:47:52.107Z,17.92
2023-01-02T04:50:00.866Z,17.58
2023-01-02T04:52:08.529Z,19.80
2023-01-02T04:54:15.536Z,18.42
2023-01-02T04:56:23.411Z,17.70
2023-01-02T04:58:30.459Z,18.38
2023-01-02T05:00:38.158Z,21.08
2023-01-02T05:02:45.240Z,17.25
2023-01-02T05:04:52.468Z,16.67
2023-01-02T05:07:00.978Z,16.65
2023-01-02T05:09:08.417Z,17.13
2023-01-02T05:11:17.494Z,17.75
2023-01-02T05:13:24.880Z,18.35
2023-01-02T05:15:31.809Z,17.25
2023-01-02T05:17:39.242Z,17.33
2023-01-02T05:19:46.218Z,17.75
2023-01-02T05:22:10.141Z,17.30
2023-01-02T05:24:19.171Z,17.17
2023-01-02T05:26:26.553Z,17.02
2023-01-02T05:28:38.407Z,16.55
2023-01-02T05:30:46.041Z,17.35
2023-01-02T05:32:53.199Z,17.98
2023-01-02T05:35:00.309Z,18.05
2023-01-02T05:37:07.208Z,18.52
2023-01-02T05:39:15.227Z,17.65
2023-01-02T05:41:24.501Z,17.05
2023-01-02T05:43:34.952Z,17.30
2023-01-02T05:45:41.942Z,17.38
2023-01-02T05:47:49.107Z,17.90
2023-01-02T05:49:55.945Z,17.67
2023-01-02T05:52:03.024Z,17.13
2023-01-02T05:54:10.256Z,18.73
2023-01-02T05:56:18.461Z,17.85
2023-01-02T05:58:26.922Z,18.48
2023-01-02T06:00:34.003Z,18.77
2023-01-02T06:02:47.064Z,17.88
2023-01-02T06:04:55.181Z,18.35
2023-01-02T06:07:02.028Z,18.98
2023-01-02T06:09:10.410Z,18.60
2023-01-02T06:11:17.644Z,18.05
2023-01-02T06:13:26.565Z,17.58
2023-01-02T06:15:33.436Z,17.52
2023-01-02T06:17:40.520Z,17.48
2023-01-02T06:19:52.005Z,17.95
2023-01-02T06:22:01.180Z,18.55
2023-01-02T06:24:08.272Z,17.73
2023-01-02T06:26:16.827Z,19.05
2023-01-02T06:28:25.727Z,18.27
2023-01-02T06:30:33.131Z,18.40
2023-01-02T06:32:40.414Z,17.63
2023-01-02T06:34:47.599Z,17.52
2023-01-02T06:36:54.372Z,18.52
2023-01-02T06:39:02.124Z,18.38
2023-01-02T06:41:10.114Z,17.40
2023-01-02T06:43:17.253Z,17.08
2023-01-02T06:45:26.240Z,18.17
2023-01-02T06:47:33.501Z,17.27
2023-01-02T06:49:40.274Z,17.35
2023-01-02T06:51:48.122Z,17.10
2023-01-02T06:53:55.154Z,16.75
2023-01-02T06:56:03.210Z,17.25
2023-01-02T06:58:14.618Z,18.13
2023-01-02T07:00:26.574Z,16.98
2023-01-02T07:02:33.697Z,17.13
2023-01-02T07:04:40.943Z,16.35
2023-01-02T07:06:47.865Z,15.93
2023-01-02T07:08:56.070Z,16.77
2023-01-02T07:11:11.340Z,16.80
2023-01-02T07:13:18.576Z,17.13
2023-01-02T07:15:27.754Z,17.85
2023-01-02T07:17:35.810Z,16.10
2023-01-02T07:19:47.012Z,16.48
2023-01-02T07:21:57.131Z,14.60
2023-01-02T07:24:06.768Z,13.43
2023-01-02T07:26:14.751Z,15.15
2023-01-02T07:28:21.546Z,13.93
2023-01-02T07:30:30.518Z,15.15
2023-01-02T07:32:37.390Z,17.05
2023-01-02T07:34:44.584Z,15.43
2023-01-02T07:36:51.450Z,14.60
2023-01-02T07:39:00.265Z,14.75
2023-01-02T07:41:07.193Z,17.70
2023-01-02T07:43:14.528Z,14.02
2023-01-02T07:45:21.605Z,12.75
2023-01-02T07:47:30.639Z,12.98
2023-01-02T07:49:37.457Z,12.65
2023-01-02T07:51:44.634Z,11.50
2023-01-02T07:53:51.510Z,12.52
2023-01-02T07:55:58.812Z,13.27
2023-01-02T07:58:05.737Z,12.73
2023-01-02T08:00:14.305Z,11.90
2023-01-02T08:02:21.284Z,12.00
2023-01-02T08:04:32.411Z,12.80
2023-01-02T08:06:41.911Z,12.10
2023-01-02T08:08:49.359Z,11.18
2023-01-02T08:10:56.563Z,10.95
2023-01-02T08:13:03.776Z,10.32
2023-01-02T08:15:11.877Z,11.15
2023-01-02T08:17:19.774Z,11.48
2023-01-02T08:19:26.545Z,11.13
2023-01-02T08:21:35.422Z,11.90
2023-01-02T08:23:42.451Z,13.85
2023-01-02T08:25:55.618Z,13.60
2023-01-02T08:28:04.440Z,12.32
2023-01-02T08:30:12.849Z,12.73
2023-01-02T08:32:19.676Z,13.23
2023-01-02T08:34:26.804Z,12.43
2023-01-02T08:36:35.315Z,13.45
2023-01-02T08:38:42.498Z,12.95
2023-01-02T08:40:49.419Z,11.93
2023-01-02T08:42:56.449Z,11.38
2023-01-02T08:45:03.252Z,12.65
2023-01-02T08:47:10.404Z,12.82
2023-01-02T08:49:17.736Z,14.80
2023-01-02T08:51:25.072Z,15.40
2023-01-02T08:53:33.735Z,15.05
2023-01-02T08:55:40.920Z,13.13
2023-01-02T08:57:47.956Z,12.52
2023-01-02T08:59:55.041Z,14.50
2023-01-02T09:02:02.120Z,13.48
2023-01-02T09:04:12.937Z,11.68
2023-01-02T09:06:22.366Z,11.20
2023-01-02T09:08:29.743Z,10.98
2023-01-02T09:10:38.464Z,11.95
2023-01-02T09:12:45.596Z,12.45
2023-01-02T09:14:52.977Z,12.80
2023-01-02T09:17:00.312Z,12.35
2023-01-02T09:19:07.760Z,12.07
2023-01-02T09:21:14.831Z,11.57
2023-01-02T09:23:21.910Z,11.25
2023-01-02T09:25:28.857Z,11.32
2023-01-02T09:27:37.760Z,11.48
2023-01-02T09:29:44.632Z,11.35
2023-01-02T09:31:51.823Z,12.30
2023-01-02T09:33:58.950Z,12.18
2023-01-02T09:36:07.662Z,11.50
2023-01-02T09:38:14.843Z,12.15
2023-01-02T09:40:22.382Z,10.90
2023-01-02T09:42:29.313Z,11.40
2023-01-02T09:44:42.696Z,13.00
2023-01-02T09:46:54.014Z,12.63
2023-01-02T09:49:03.141Z,13.75
2023-01-02T09:51:10.476Z,15.38
2023-01-02T09:53:18.783Z,14.55
2023-01-02T09:55:38.670Z,14.60
2023-01-02T09:57:50.502Z,13.65
2023-01-02T10:00:05.326Z,12.05
2023-01-02T10:02:28.975Z,13.15
2023-01-02T10:04:52.752Z,12.57
2023-01-02T10:07:11.249Z,12.13
2023-01-02T10:09:27.137Z,11.07
2023-01-02T10:11:44.612Z,10.38
2023-01-02T10:16:37.782Z,11.50
2023-01-02T10:18:47.881Z,13.00
2023-01-02T10:20:59.901Z,15.10
2023-01-02T10:23:16.175Z,15.45
2023-01-02T10:25:26.425Z,16.48
2023-01-02T10:27:39.321Z,17.42
2023-01-02T10:29:51.847Z,18.45
2023-01-02T10:32:04.709Z,20.40
2023-01-02T10:34:17.731Z,19.98
2023-01-02T10:36:29.622Z,21.45
2023-01-02T10:38:40.028Z,22.42
2023-01-02T10:40:48.850Z,22.13
2023-01-02T10:43:00.197Z,20.85
2023-01-02T10:45:07.640Z,21.50
2023-01-02T10:47:23.911Z,21.80
2023-01-02T10:49:33.551Z,23.20
2023-01-02T10:51:45.191Z,23.00
2023-01-02T10:54:04.451Z,24.75
2023-01-02T10:56:21.412Z,24.60
2023-01-02T10:58:33.560Z,26.80
2023-01-02T11:00:40.934Z,23.17
2023-01-02T11:02:54.890Z,23.92
2023-01-02T11:05:06.269Z,24.20
2023-01-02T11:07:28.913Z,22.65
2023-01-02T11:09:37.532Z,23.77
2023-01-02T11:11:53.361Z,22.27
2023-01-02T11:14:09.397Z,23.42
2023-01-02T11:16:17.623Z,21.95
2023-01-02T11:18:29.711Z,23.67
2023-01-02T11:20:40.211Z,24.48
2023-01-02T11:22:47.905Z,24.90
2023-01-02T11:25:01.739Z,26.88
2023-01-02T11:27:09.750Z,29.73
2023-01-02T11:29:21.086Z,28.75
2023-01-02T11:31:28.400Z,28.52
2023-01-02T11:33:38.511Z,28.88
2023-01-02T11:35:50.606Z,28.88
2023-01-02T11:37:57.685Z,27.45
2023-01-02T11:40:06.519Z,28.05
2023-01-02T11:42:38.738Z,27.08
2023-01-02T11:44:56.964Z,24.90
2023-01-02T11:47:05.885Z,23.42
2023-01-02T11:49:19.519Z,22.98
2023-01-02T11:51:27.011Z,21.52
2023-01-02T11:53:40.082Z,20.88
2023-01-02T11:55:50.520Z,20.63
2023-01-02T11:58:00.948Z,20.90
2023-01-02T12:00:12.998Z,20.25
2023-01-02T12:02:30.326Z,19.00
2023-01-02T12:04:38.984Z,19.63
2023-01-02T12:07:08.377Z,19.25
2023-01-02T12:09:16.840Z,18.95
2023-01-02T12:11:33.814Z,18.63
2023-01-02T12:14:12.888Z,18.85
2023-01-02T12:16:38.762Z,19.30
2023-01-02T12:19:18.700Z,19.88
2023-01-02T12:21:28.797Z,20.35
2023-01-02T12:23:53.085Z,18.90
2023-01-02T12:26:10.006Z,19.27
2023-01-02T12:28:33.096Z,19.20
2023-01-02T12:30:50.312Z,18.63
2023-01-02T12:33:25.201Z,18.15
2023-01-02T12:36:08.877Z,18.27
2023-01-02T12:38:23.916Z,18.83
2023-01-02T12:40:47.306Z,19.13
2023-01-02T12:43:20.349Z,17.48
2023-01-02T12:45:37.549Z,16.85
2023-01-02T12:48:01.387Z,18.38
2023-01-02T12:50:31.159Z,17.55
2023-01-02T12:52:54.133Z,17.90
2023-01-02T12:55:18.939Z,18.15
2023-01-02T12:57:36.107Z,18.98
2023-01-02T13:00:06.025Z,17.30
2023-01-02T13:02:24.669Z,17.50
2023-01-02T13:04:34.977Z,16.92
2023-01-02T13:06:53.840Z,16.88
2023-01-02T13:09:06.289Z,16.73
2023-01-02T13:11:18.179Z,17.58
2023-01-02T13:13:29.301Z,17.05
2023-01-02T13:15:40.889Z,17.48
2023-01-02T13:17:58.006Z,16.90
2023-01-02T13:20:13.663Z,17.17
2023-01-02T13:22:31.108Z,16.92
2023-01-02T13:24:38.545Z,17.50
2023-01-02T13:26:48.216Z,16.52
2023-01-02T13:29:03.879Z,16.98
2023-01-02T13:33:42.712Z,19.42
2023-01-02T13:35:49.829Z,19.35
2023-01-02T13:37:58.191Z,20.45
2023-01-02T13:40:07.068Z,20.05
2023-01-02T13:42:43.831Z,20.75
2023-01-02T13:44:54.194Z,19.73
2023-01-02T13:47:10.238Z,21.75
2023-01-02T13:49:23.167Z,19.27
2023-01-02T13:51:32.834Z,19.33
2023-01-02T13:53:44.997Z,19.45
2023-01-02T13:56:08.248Z,19.48
2023-01-02T13:58:43.214Z,18.05
2023-01-02T14:00:55.211Z,18.33
2023-01-02T14:03:21.550Z,18.02
2023-01-02T14:06:02.678Z,17.52
2023-01-02T14:08:28.042Z,19.20
2023-01-02T14:10:43.820Z,19.90
2023-01-02T14:12:55.713Z,19.05
2023-01-02T14:15:04.380Z,17.83
2023-01-02T14:17:21.288Z,19.05
2023-01-02T14:19:29.045Z,19.60
2023-01-02T14:21:39.272Z,18.98
2023-01-02T14:24:16.087Z,20.25
2023-01-02T14:28:40.819Z,18.63
2023-01-02T14:30:51.247Z,17.63
2023-01-02T14:33:02.965Z,17.80
2023-01-02T14:35:25.099Z,19.15
2023-01-02T14:37:41.760Z,18.75
2023-01-02T14:39:49.084Z,19.38
2023-01-02T14:42:42.402Z,17.90
2023-01-02T14:44:54.450Z,17.77
2023-01-02T14:47:05.363Z,17.02
2023-01-02T14:49:26.180Z,17.45
2023-01-02T14:51:37.851Z,17.45
2023-01-02T14:53:52.714Z,17.83
2023-01-02T14:56:05.391Z,18.98
2023-01-02T14:58:21.105Z,18.50
2023-01-02T15:00:35.201Z,18.02
2023-01-02T15:02:47.588Z,17.83
2023-01-02T15:04:57.448Z,17.38
2023-01-02T15:07:16.409Z,16.90
2023-01-02T15:09:33.215Z,17.90
2023-01-02T15:11:57.138Z,18.42
2023-01-02T15:14:06.217Z,17.38
2023-01-02T15:16:13.997Z,16.63
2023-01-02T15:18:26.323Z,16.95
2023-01-02T15:20:35.285Z,16.02
2023-01-02T15:22:44.153Z,16.65
2023-01-02T15:24:53.230Z,16.30
2023-01-02T15:27:15.978Z,16.63
2023-01-02T15:29:28.546Z,16.65
2023-01-02T15:31:35.949Z,16.27
2023-01-02T15:33:45.202Z,15.80
2023-01-02T15:35:59.777Z,15.73
2023-01-02T15:38:07.611Z,16.83
2023-01-02T15:40:19.701Z,17.42
2023-01-02T15:42:46.148Z,16.75
2023-01-02T15:45:09.700Z,16.27
2023-01-02T15:47:22.449Z,16.98
2023-01-02T15:49:34.404Z,16.67
2023-01-02T15:51:43.070Z,16.73
2023-01-02T15:53:52.135Z,17.35
2023-01-02T15:56:00.557Z,16.70
2023-01-02T15:58:23.926Z,17.42
2023-01-02T16:00:36.388Z,18.48
2023-01-02T16:02:47.419Z,20.83
2023-01-02T16:05:10.550Z,18.05
2023-01-02T16:07:24.903Z,16.63
2023-01-02T16:09:33.208Z,17.20
2023-01-02T16:11:49.146Z,18.13
2023-01-02T16:14:15.529Z,17.48
2023-01-02T16:16:23.522Z,17.48
2023-01-02T16:18:32.299Z,17.27
2023-01-02T16:20:40.854Z,17.15
2023-01-02T16:22:50.092Z,17.20
2023-01-02T16:25:03.425Z,17.98
2023-01-02T16:27:10.637Z,18.42
2023-01-02T16:29:20.408Z,17.48
2023-01-02T16:31:30.021Z,18.73
2023-01-02T16:33:37.314Z,17.73
2023-01-02T16:36:00.728Z,17.25
2023-01-02T16:38:09.547Z,17.27
2023-01-02T16:41:00.071Z,17.73
2023-01-02T16:43:09.837Z,16.95
2023-01-02T16:45:20.140Z,16.92
2023-01-02T16:47:27.988Z,18.90
2023-01-02T16:49:35.377Z,28.65
2023-01-02T16:51:45.821Z,20.40
2023-01-02T16:53:52.965Z,22.98
2023-01-02T16:56:00.017Z,22.00
2023-01-02T16:58:07.276Z,22.80
2023-01-02T17:00:15.486Z,22.40
2023-01-02T17:02:22.891Z,23.15
2023-01-02T17:04:29.795Z,20.88
2023-01-02T17:06:38.356Z,20.10
2023-01-02T17:08:46.806Z,23.15
2023-01-02T17:10:53.606Z,21.27
2023-01-02T17:13:00.365Z,23.27
2023-01-02T17:15:07.986Z,22.45
2023-01-02T17:17:14.841Z,22.05
2023-01-02T17:19:22.369Z,21.73
2023-01-02T17:21:32.698Z,22.05
2023-01-02T17:23:40.248Z,21.42
2023-01-02T17:25:49.803Z,20.85
2023-01-02T17:27:57.070Z,21.10
2023-01-02T17:30:04.519Z,20.75
2023-01-02T17:32:11.702Z,18.52
2023-01-02T17:34:18.886Z,19.70
2023-01-02T17:36:25.914Z,24.90
2023-01-02T17:38:32.635Z,23.48
2023-01-02T17:40:41.322Z,24.05
2023-01-02T17:42:50.237Z,21.25
2023-01-02T17:44:57.393Z,22.73
2023-01-02T17:47:48.191Z,32.22
2023-01-02T17:49:31.262Z,30.58
2023-01-02T17:51:38.751Z,40.42
2023-01-02T17:53:46.259Z,28.75
2023-01-02T17:56:21.401Z,32.03
2023-01-02T17:58:25.230Z,24.17
2023-01-02T18:00:32.033Z,28.48
2023-01-02T18:02:39.329Z,27.35
2023-01-02T18:04:52.790Z,25.95
2023-01-02T18:07:04.203Z,23.58
2023-01-02T18:09:12.751Z,22.70
2023-01-02T18:11:20.886Z,25.20
2023-01-02T18:13:31.069Z,25.15
2023-01-02T18:15:38.211Z,23.77
2023-01-02T18:17:45.167Z,23.02
2023-01-02T18:19:54.058Z,23.05
2023-01-02T18:22:00.693Z,21.83
2023-01-02T18:24:14.603Z,22.42
2023-01-02T18:26:22.247Z,20.67
2023-01-02T18:28:31.031Z,21.95
2023-01-02T18:30:38.388Z,23.80
2023-01-02T18:32:46.469Z,24.02
2023-01-02T18:34:59.211Z,23.48
2023-01-02T18:37:09.539Z,22.98
2023-01-02T18:39:23.045Z,22.65
2023-01-02T18:41:31.980Z,22.73
2023-01-02T18:43:42.604Z,21.80
2023-01-02T18:45:52.540Z,21.73
2023-01-02T18:48:00.910Z,21.83
2023-01-02T18:50:30.057Z,21.85
2023-01-02T18:52:38.616Z,21.40
2023-01-02T18:54:47.979Z,21.73
2023-01-02T18:56:54.820Z,22.38
2023-01-02T18:59:09.212Z,23.35
2023-01-02T19:01:30.340Z,23.75
2023-01-02T19:03:37.496Z,22.90
2023-01-02T19:05:45.973Z,20.95
2023-01-02T19:07:53.769Z,21.25
2023-01-02T19:10:13.238Z,21.35
2023-01-02T19:12:45.557Z,19.70
2023-01-02T19:14:55.767Z,20.60
2023-01-02T19:17:08.295Z,22.40
2023-01-02T19:19:19.748Z,26.35
2023-01-02T19:21:31.387Z,24.07
2023-01-02T19:25:52.929Z,22.60
2023-01-02T19:28:03.867Z,22.30
2023-01-02T19:30:31.407Z,21.05
2023-01-02T19:32:39.807Z,22.80
2023-01-02T19:34:48.268Z,21.92
2023-01-02T19:36:59.497Z,21.67
2023-01-02T19:39:14.968Z,21.65
2023-01-02T19:41:43.308Z,21.42
2023-01-02T19:43:50.227Z,20.58
2023-01-02T19:45:59.151Z,21.48
2023-01-02T19:48:06.153Z,20.45
2023-01-02T19:50:15.301Z,19.95
2023-01-02T19:52:22.692Z,19.58
2023-01-02T19:54:29.777Z,18.58
2023-01-02T19:56:36.692Z,18.08
2023-01-02T19:58:43.821Z,18.40
2023-01-02T20:00:50.645Z,18.05
2023-01-02T20:02:59.750Z,18.70
2023-01-02T20:05:06.803Z,18.15
2023-01-02T20:07:14.337Z,18.00
2023-01-02T20:09:25.372Z,17.70
2023-01-02T20:11:49.489Z,19.45
2023-01-02T20:13:56.417Z,17.67
2023-01-02T20:16:03.313Z,18.67
2023-01-02T20:18:12.250Z,18.17
2023-01-02T20:20:21.704Z,18.13
2023-01-02T20:22:29.558Z,17.83
2023-01-02T20:24:36.526Z,17.92
2023-01-02T20:26:43.653Z,18.50
2023-01-02T20:28:50.999Z,18.25
2023-01-02T20:30:57.990Z,18.98
2023-01-02T20:33:05.453Z,18.13
2023-01-02T20:35:14.582Z,19.20
2023-01-02T20:37:22.631Z,18.35
2023-01-02T20:39:29.506Z,17.70
2023-01-02T20:41:39.541Z,19.63
2023-01-02T20:43:46.444Z,19.25
2023-01-02T20:45:53.855Z,17.92
2023-01-02T20:48:00.945Z,17.67
2023-01-02T20:50:08.336Z,18.33
2023-01-02T20:52:17.205Z,18.02
2023-01-02T20:54:24.559Z,17.27
2023-01-02T20:56:31.476Z,17.98
2023-01-02T20:58:38.595Z,17.67
2023-01-02T21:00:45.623Z,17.58
2023-01-02T21:02:53.275Z,17.38
2023-01-02T21:05:01.010Z,18.40
2023-01-02T21:07:08.652Z,17.42
2023-01-02T21:09:17.265Z,17.77
2023-01-02T21:11:24.449Z,19.00
2023-01-02T21:13:31.323Z,18.95
2023-01-02T21:15:47.952Z,18.83
2023-01-02T21:17:54.750Z,19.25
2023-01-02T21:20:01.878Z,18.10
2023-01-02T21:22:08.707Z,18.67
2023-01-02T21:24:17.677Z,19.35
2023-01-02T21:26:24.647Z,18.70
2023-01-02T21:28:31.840Z,18.70
2023-01-02T21:30:39.474Z,18.42
2023-01-02T21:32:46.657Z,19.77
2023-01-02T21:34:53.532Z,18.65
2023-01-02T21:37:00.924Z,18.55
2023-01-02T21:39:07.892Z,19.08
2023-01-02T21:41:33.218Z,18.90
2023-01-02T21:43:40.126Z,18.75
2023-01-02T21:45:47.309Z,18.90
2023-01-02T21:47:54.358Z,19.50
2023-01-02T21:50:01.519Z,18.70
2023-01-02T21:52:08.852Z,19.38
2023-01-02T21:54:16.248Z,19.25
2023-01-02T21:56:24.913Z,19.70
2023-01-02T21:58:32.562Z,19.08
2023-01-02T22:00:39.462Z,17.75
2023-01-02T22:02:46.845Z,19.42
2023-01-02T22:04:53.718Z,19.52
2023-01-02T22:09:27.927Z,19.08
2023-01-02T22:11:53.370Z,18.58
2023-01-02T22:14:00.261Z,19.30
2023-01-02T22:16:07.675Z,19.33
2023-01-02T22:18:14.715Z,19.85
2023-01-02T22:20:21.944Z,19.63
2023-01-02T22:22:29.125Z,18.80
2023-01-02T22:24:42.318Z,19.13
2023-01-02T22:26:54.138Z,19.17
2023-01-02T22:29:02.302Z,20.15
2023-01-02T22:31:09.462Z,21.55
2023-01-02T22:33:16.549Z,19.27
2023-01-02T22:35:23.634Z,19.02
2023-01-02T22:37:30.727Z,18.42
2023-01-02T22:39:38.352Z,18.98
2023-01-02T22:41:47.329Z,18.45
2023-01-02T22:43:56.248Z,19.00
2023-01-02T22:46:06.971Z,18.38
2023-01-02T22:48:23.675Z,18.63
2023-01-02T22:50:32.781Z,18.77
2023-01-02T22:52:40.043Z,19.13
2023-01-02T22:54:46.954Z,19.73
2023-01-02T22:56:55.006Z,19.60
2023-01-02T22:59:03.876Z,20.10
2023-01-02T23:01:19.586Z,20.20
2023-01-02T23:03:29.944Z,19.90
2023-01-02T23:05:36.948Z,20.50
2023-01-02T23:07:43.786Z,19.98
2023-01-02T23:09:51.153Z,20.33
2023-01-02T23:11:58.075Z,20.25
2023-01-02T23:14:07.151Z,20.55
2023-01-02T23:16:30.850Z,19.90
2023-01-02T23:18:56.898Z,20.75
2023-01-02T23:21:11.910Z,20.80
2023-01-02T23:23:19.195Z,19.98
2023-01-02T23:25:26.787Z,20.58
2023-01-02T23:27:34.072Z,20.70
2023-01-02T23:29:43.046Z,20.42
2023-01-02T23:31:52.138Z,21.08
2023-01-02T23:33:59.229Z,21.10
2023-01-02T23:36:06.584Z,21.27
2023-01-02T23:38:13.455Z,21.08
2023-01-02T23:40:20.997Z,20.73
2023-01-02T23:42:27.877Z,21.77
2023-01-02T23:44:35.159Z,22.10
2023-01-02T23:46:44.336Z,20.73
2023-01-02T23:48:51.573Z,20.98
2023-01-02T23:51:00.953Z,21.40
2023-01-02T23:53:08.183Z,21.13
2023-01-02T23:55:15.062Z,20.80
2023-01-02T23:57:22.372Z,20.23
2023-01-02T23:59:29.478Z,20.80
